createdAt,value
2023-03-03T00:02:23.111Z,101835.50
2023-03-03T00:04:49.584Z,101829.75
2023-03-03T00:07:21.535Z,101832.00
2023-03-03T00:09:47.854Z,101851.53
2023-03-03T00:12:32.336Z,101843.63
2023-03-03T00:14:58.683Z,101846.50
2023-03-03T00:17:26.272Z,101845.75
2023-03-03T00:19:52.818Z,101855.13
2023-03-03T00:22:25.497Z,101855.00
2023-03-03T00:24:51.935Z,101853.63
2023-03-03T00:27:25.216Z,101857.88
2023-03-03T00:29:53.465Z,101852.00
2023-03-03T00:32:25.604Z,101834.75
2023-03-03T00:34:52.614Z,101823.25
2023-03-03T00:37:29.150Z,101823.25
2023-03-03T00:40:16.792Z,101830.47
2023-03-03T00:42:44.793Z,101833.50
2023-03-03T00:45:18.477Z,101836.34
2023-03-03T00:47:44.825Z,101834.88
2023-03-03T00:50:11.075Z,101821.97
2023-03-03T00:52:38.257Z,101814.75
2023-03-03T00:55:05.060Z,101827.59
2023-03-03T00:57:31.410Z,101810.34
2023-03-03T00:59:57.927Z,101828.25
2023-03-03T01:02:24.387Z,101828.25
2023-03-03T01:04:51.781Z,101812.34
2023-03-03T01:07:18.460Z,101821.75
2023-03-03T01:09:44.779Z,101808.72
2023-03-03T01:12:11.498Z,101819.50
2023-03-03T01:14:38.096Z,101816.00
2023-03-03T01:17:04.457Z,101812.34
2023-03-03T01:19:30.777Z,101816.00
2023-03-03T01:21:57.582Z,101811.72
2023-03-03T01:24:23.972Z,101811.88
2023-03-03T01:26:50.339Z,101821.63
2023-03-03T01:29:16.664Z,101827.13
2023-03-03T01:31:43.014Z,101805.47
2023-03-03T01:34:09.351Z,101803.22
2023-03-03T01:36:37.081Z,101798.22
2023-03-03T01:39:03.719Z,101801.84
2023-03-03T01:41:32.298Z,101792.34
2023-03-03T01:43:58.648Z,101791.72
2023-03-03T01:46:25.060Z,101788.09
2023-03-03T01:48:51.826Z,101783.72
2023-03-03T01:51:22.757Z,101766.47
2023-03-03T01:53:53.006Z,101776.59
2023-03-03T01:56:19.329Z,101778.09
2023-03-03T01:58:46.708Z,101770.94
2023-03-03T02:01:14.580Z,101769.47
2023-03-03T02:03:41.055Z,101780.22
2023-03-03T02:06:08.461Z,101769.47
2023-03-03T02:08:50.480Z,101762.22
2023-03-03T02:11:16.849Z,101779.47
2023-03-03T02:13:43.189Z,101779.47
2023-03-03T02:16:09.544Z,101781.72
2023-03-03T02:18:35.905Z,101789.47
2023-03-03T02:21:04.984Z,101786.59
2023-03-03T02:23:35.351Z,101793.72
2023-03-03T02:26:01.648Z,101789.47
2023-03-03T02:28:30.361Z,101783.72
2023-03-03T02:30:57.416Z,101796.75
2023-03-03T02:33:24.482Z,101798.22
2023-03-03T02:35:50.988Z,101785.22
2023-03-03T02:38:33.935Z,101798.22
2023-03-03T02:41:15.833Z,101793.22
2023-03-03T02:43:47.086Z,101783.84
2023-03-03T02:46:13.655Z,101789.72
2023-03-03T02:48:39.975Z,101795.59
2023-03-03T02:51:06.306Z,101786.97
2023-03-03T02:53:32.670Z,101806.38
2023-03-03T02:55:59.084Z,101796.22
2023-03-03T02:58:25.698Z,101792.59
2023-03-03T03:00:52.430Z,101792.00
2023-03-03T03:03:22.180Z,101796.75
2023-03-03T03:05:49.227Z,101795.47
2023-03-03T03:08:18.737Z,101786.97
2023-03-03T03:10:45.151Z,101792.72
2023-03-03T03:13:12.094Z,101795.72
2023-03-03T03:15:38.948Z,101796.34
2023-03-03T03:18:05.298Z,101800.72
2023-03-03T03:20:32.116Z,101799.22
2023-03-03T03:22:58.539Z,101799.09
2023-03-03T03:25:24.907Z,101816.34
2023-03-03T03:27:51.371Z,101812.00
2023-03-03T03:30:20.592Z,101818.50
2023-03-03T03:32:47.600Z,101816.97
2023-03-03T03:35:13.990Z,101810.47
2023-03-03T03:37:40.425Z,101814.22
2023-03-03T03:40:06.889Z,101818.63
2023-03-03T03:42:33.249Z,101820.75
2023-03-03T03:44:59.607Z,101826.59
2023-03-03T03:47:26.322Z,101817.22
2023-03-03T03:49:52.749Z,101811.47
2023-03-03T03:52:19.995Z,101807.97
2023-03-03T03:54:46.394Z,101802.97
2023-03-03T03:57:12.798Z,101805.84
2023-03-03T03:59:39.183Z,101798.75
2023-03-03T04:02:05.918Z,101805.97
2023-03-03T04:04:32.452Z,101791.59
2023-03-03T04:06:59.518Z,101786.47
2023-03-03T04:09:25.880Z,101792.97
2023-03-03T04:11:52.331Z,101783.59
2023-03-03T04:14:19.528Z,101785.72
2023-03-03T04:16:45.940Z,101779.97
2023-03-03T04:19:12.880Z,101787.09
2023-03-03T04:21:41.571Z,101784.22
2023-03-03T04:24:07.915Z,101782.09
2023-03-03T04:26:34.282Z,101784.22
2023-03-03T04:29:02.579Z,101778.47
2023-03-03T04:31:29.178Z,101778.47
2023-03-03T04:33:55.825Z,101776.97
2023-03-03T04:36:23.207Z,101779.84
2023-03-03T04:38:49.572Z,101775.47
2023-03-03T04:41:16.017Z,101767.47
2023-03-03T04:43:43.100Z,101767.47
2023-03-03T04:46:11.757Z,101774.72
2023-03-03T04:48:38.636Z,101775.47
2023-03-03T04:51:05.028Z,101776.34
2023-03-03T04:53:33.583Z,101776.97
2023-03-03T04:55:59.948Z,101776.34
2023-03-03T04:58:26.282Z,101789.97
2023-03-03T05:00:54.893Z,101791.47
2023-03-03T05:03:21.226Z,101787.22
2023-03-03T05:05:47.572Z,101782.97
2023-03-03T05:08:13.995Z,101773.59
2023-03-03T05:10:40.308Z,101770.72
2023-03-03T05:13:06.868Z,101769.97
2023-03-03T05:15:33.196Z,101763.44
2023-03-03T05:17:59.540Z,101764.22
2023-03-03T05:20:26.082Z,101770.59
2023-03-03T05:22:52.426Z,101768.34
2023-03-03T05:25:18.755Z,101768.34
2023-03-03T05:27:45.097Z,101766.19
2023-03-03T05:30:11.742Z,101766.19
2023-03-03T05:32:38.145Z,101766.97
2023-03-03T05:35:04.862Z,101764.09
2023-03-03T05:37:31.204Z,101764.72
2023-03-03T05:39:57.541Z,101771.22
2023-03-03T05:42:23.912Z,101778.34
2023-03-03T05:44:50.313Z,101781.97
2023-03-03T05:47:16.626Z,101785.47
2023-03-03T05:49:42.953Z,101796.97
2023-03-03T05:52:09.333Z,101791.22
2023-03-03T05:54:35.664Z,101793.47
2023-03-03T05:57:01.983Z,101791.34
2023-03-03T05:59:28.325Z,101797.84
2023-03-03T06:01:54.685Z,101798.59
2023-03-03T06:04:21.049Z,101799.22
2023-03-03T06:06:47.375Z,101795.59
2023-03-03T06:09:13.766Z,101804.38
2023-03-03T06:11:40.149Z,101802.09
2023-03-03T06:14:06.513Z,101800.63
2023-03-03T06:16:32.900Z,101799.97
2023-03-03T06:18:59.246Z,101797.22
2023-03-03T06:21:25.563Z,101800.84
2023-03-03T06:23:51.938Z,101809.59
2023-03-03T06:26:18.256Z,101816.22
2023-03-03T06:28:44.802Z,101810.47
2023-03-03T06:31:11.160Z,101825.75
2023-03-03T06:33:38.350Z,101831.75
2023-03-03T06:36:05.872Z,101821.88
2023-03-03T06:38:32.495Z,101829.25
2023-03-03T06:41:02.041Z,101827.91
2023-03-03T06:43:28.374Z,101817.13
2023-03-03T06:45:54.762Z,101824.88
2023-03-03T06:48:21.125Z,101830.53
2023-03-03T06:50:47.500Z,101827.91
2023-03-03T06:53:15.064Z,101826.34
2023-03-03T06:55:44.294Z,101825.69
2023-03-03T06:58:12.719Z,101822.66
2023-03-03T07:00:39.063Z,101829.06
2023-03-03T07:03:07.740Z,101839.63
2023-03-03T07:05:34.532Z,101834.97
2023-03-03T07:08:00.852Z,101850.50
2023-03-03T07:10:27.857Z,101851.44
2023-03-03T07:12:54.455Z,101855.31
2023-03-03T07:15:24.520Z,101861.50
2023-03-03T07:17:52.795Z,101864.84
2023-03-03T07:20:20.349Z,101876.91
2023-03-03T07:22:46.659Z,101869.72
2023-03-03T07:25:26.346Z,101865.66
2023-03-03T07:27:53.492Z,101868.53
2023-03-03T07:30:27.000Z,101849.13
2023-03-03T07:32:54.756Z,101855.50
2023-03-03T07:35:40.108Z,101858.50
2023-03-03T07:38:35.737Z,101861.50
2023-03-03T07:41:03.029Z,101864.22
2023-03-03T07:43:30.288Z,101870.25
2023-03-03T07:46:03.829Z,101864.75
2023-03-03T07:48:31.051Z,101877.03
2023-03-03T07:50:58.146Z,101880.53
2023-03-03T07:53:26.844Z,101881.53
2023-03-03T07:55:53.164Z,101883.53
2023-03-03T07:58:19.410Z,101881.91
2023-03-03T08:00:46.099Z,101889.69
2023-03-03T08:03:12.922Z,101886.66
2023-03-03T08:05:46.932Z,101883.03
2023-03-03T08:08:13.269Z,101892.56
2023-03-03T08:10:55.163Z,101886.66
2023-03-03T08:13:22.140Z,101886.56
2023-03-03T08:15:59.858Z,101886.66
2023-03-03T08:18:29.856Z,101889.78
2023-03-03T08:20:59.825Z,101889.28
2023-03-03T08:23:26.166Z,101869.94
2023-03-03T08:25:52.506Z,101871.94
2023-03-03T08:28:19.665Z,101887.06
2023-03-03T08:30:46.136Z,101874.66
2023-03-03T08:33:12.709Z,101872.31
2023-03-03T08:35:39.078Z,101877.31
2023-03-03T08:38:05.709Z,101881.72
2023-03-03T08:40:32.055Z,101876.16
2023-03-03T08:42:58.373Z,101878.28
2023-03-03T08:45:25.290Z,101880.28
2023-03-03T08:47:51.611Z,101883.78
2023-03-03T08:50:17.934Z,101880.41
2023-03-03T08:52:44.263Z,101885.19
2023-03-03T08:55:10.582Z,101889.69
2023-03-03T08:57:37.162Z,101884.81
2023-03-03T09:00:03.945Z,101887.56
2023-03-03T09:02:30.297Z,101877.56
2023-03-03T09:04:56.628Z,101875.69
2023-03-03T09:07:22.997Z,101877.81
2023-03-03T09:09:49.307Z,101875.56
2023-03-03T09:12:17.094Z,101879.16
2023-03-03T09:14:43.598Z,101877.56
2023-03-03T09:17:18.193Z,101887.56
2023-03-03T09:19:45.328Z,101881.69
2023-03-03T09:22:16.261Z,101878.03
2023-03-03T09:24:42.579Z,101876.56
2023-03-03T09:27:27.224Z,101875.81
2023-03-03T09:29:53.539Z,101881.56
2023-03-03T09:32:19.812Z,101882.31
2023-03-03T09:34:46.134Z,101882.31
2023-03-03T09:37:15.687Z,101871.53
2023-03-03T09:39:48.279Z,101873.06
2023-03-03T09:42:33.474Z,101875.81
2023-03-03T09:45:17.945Z,101878.69
2023-03-03T09:47:56.294Z,101878.56
2023-03-03T09:50:30.229Z,101878.16
2023-03-03T09:53:15.223Z,101879.84
2023-03-03T09:55:47.500Z,101898.28
2023-03-03T09:58:26.276Z,101884.13
2023-03-03T10:01:11.491Z,101875.28
2023-03-03T10:03:51.295Z,101878.78
2023-03-03T10:06:20.240Z,101882.19
2023-03-03T10:08:53.172Z,101871.81
2023-03-03T10:11:30.316Z,101872.28
2023-03-03T10:14:00.634Z,101888.56
2023-03-03T10:16:48.610Z,101888.81
2023-03-03T10:19:19.811Z,101888.31
2023-03-03T10:21:50.310Z,101880.78
2023-03-03T10:24:29.328Z,101876.28
2023-03-03T10:27:14.738Z,101879.69
2023-03-03T10:29:46.844Z,101865.75
2023-03-03T10:32:32.468Z,101865.38
2023-03-03T10:35:05.085Z,101874.03
2023-03-03T10:37:50.960Z,101862.47
2023-03-03T10:40:20.385Z,101862.97
2023-03-03T10:42:52.429Z,101880.34
2023-03-03T10:45:36.970Z,101870.22
2023-03-03T10:48:09.446Z,101876.75
2023-03-03T10:50:55.748Z,101878.66
2023-03-03T10:53:23.801Z,101872.66
2023-03-03T10:56:09.506Z,101869.28
2023-03-03T10:58:45.566Z,101874.03
2023-03-03T11:01:24.298Z,101871.00
2023-03-03T11:03:56.902Z,101874.03
2023-03-03T11:06:41.672Z,101881.13
2023-03-03T11:09:25.922Z,101880.50
2023-03-03T11:11:55.568Z,101878.25
2023-03-03T11:14:23.802Z,101873.50
2023-03-03T11:17:09.130Z,101874.22
2023-03-03T11:19:44.332Z,101872.84
2023-03-03T11:22:13.931Z,101870.94
2023-03-03T11:24:46.338Z,101875.72
2023-03-03T11:27:21.411Z,101870.94
2023-03-03T11:29:50.352Z,101881.22
2023-03-03T11:32:19.413Z,101859.19
2023-03-03T11:35:04.345Z,101861.44
2023-03-03T11:37:36.182Z,101861.41
2023-03-03T11:40:04.830Z,101862.91
2023-03-03T11:42:36.311Z,101861.16
2023-03-03T11:45:03.591Z,101859.50
2023-03-03T11:47:34.828Z,101855.38
2023-03-03T11:50:02.600Z,101863.41
2023-03-03T11:52:40.251Z,101861.16
2023-03-03T11:55:12.947Z,101866.78
2023-03-03T11:57:45.506Z,101865.53
2023-03-03T12:00:31.647Z,101862.53
2023-03-03T12:03:16.894Z,101853.63
2023-03-03T12:05:52.369Z,101844.81
2023-03-03T12:08:21.620Z,101837.66
2023-03-03T12:10:50.710Z,101830.91
2023-03-03T12:13:23.085Z,101834.53
2023-03-03T12:15:49.547Z,101829.00
2023-03-03T12:18:26.770Z,101829.25
2023-03-03T12:21:00.030Z,101823.25
2023-03-03T12:23:35.394Z,101822.31
2023-03-03T12:26:20.805Z,101816.16
2023-03-03T12:28:50.190Z,101810.91
2023-03-03T12:31:25.247Z,101811.25
2023-03-03T12:33:56.747Z,101801.09
2023-03-03T12:36:37.090Z,101801.91
2023-03-03T12:39:06.704Z,101804.69
2023-03-03T12:41:37.703Z,101795.16
2023-03-03T12:44:23.132Z,101803.19
2023-03-03T12:46:52.507Z,101795.88
2023-03-03T12:49:19.132Z,101791.81
2023-03-03T12:51:55.333Z,101800.50
2023-03-03T12:54:40.392Z,101794.22
2023-03-03T12:57:10.299Z,101788.44
2023-03-03T12:59:52.105Z,101784.47
2023-03-03T13:02:37.307Z,101785.91
2023-03-03T13:05:09.656Z,101785.28
2023-03-03T13:07:56.688Z,101785.72
2023-03-03T13:10:35.454Z,101779.16
2023-03-03T13:13:02.016Z,101777.94
2023-03-03T13:15:32.485Z,101775.19
2023-03-03T13:18:29.848Z,101775.56
2023-03-03T13:21:17.122Z,101772.78
2023-03-03T13:24:02.797Z,101772.38
2023-03-03T13:26:32.022Z,101771.00
2023-03-03T13:28:59.894Z,101768.22
2023-03-03T13:31:29.270Z,101772.50
2023-03-03T13:33:56.567Z,101758.09
2023-03-03T13:36:24.750Z,101759.47
2023-03-03T13:38:54.662Z,101763.75
2023-03-03T13:41:22.502Z,101756.25
2023-03-03T13:44:09.184Z,101764.59
2023-03-03T13:46:37.472Z,101765.81
2023-03-03T13:49:22.749Z,101763.78
2023-03-03T13:52:00.735Z,101756.06
2023-03-03T13:54:39.816Z,101752.22
2023-03-03T13:57:16.048Z,101747.22
2023-03-03T13:59:57.745Z,101744.88
2023-03-03T14:02:28.605Z,101740.38
2023-03-03T14:05:00.110Z,101731.97
2023-03-03T14:07:45.901Z,101725.88
2023-03-03T14:10:19.910Z,101717.97
2023-03-03T14:12:48.355Z,101720.22
2023-03-03T14:15:17.412Z,101725.81
2023-03-03T14:17:55.260Z,101720.47
2023-03-03T14:20:26.065Z,101718.38
2023-03-03T14:22:58.600Z,101714.97
2023-03-03T14:25:24.990Z,101712.81
2023-03-03T14:27:51.295Z,101708.00
2023-03-03T14:30:25.124Z,101723.19
2023-03-03T14:33:09.795Z,101715.81
2023-03-03T14:35:49.989Z,101711.44
2023-03-03T14:38:31.543Z,101708.00
2023-03-03T14:41:06.340Z,101704.28
2023-03-03T14:43:36.318Z,101706.31
2023-03-03T14:46:21.372Z,101692.44
2023-03-03T14:48:51.142Z,101697.16
2023-03-03T14:51:23.417Z,101692.75
2023-03-03T14:53:50.055Z,101692.00
2023-03-03T14:56:22.444Z,101692.50
2023-03-03T14:58:48.983Z,101675.75
2023-03-03T15:01:31.569Z,101683.66
2023-03-03T15:03:58.731Z,101678.63
2023-03-03T15:06:44.464Z,101681.41
2023-03-03T15:09:43.199Z,101670.63
2023-03-03T15:12:26.060Z,101683.66
2023-03-03T15:15:04.463Z,101678.13
2023-03-03T15:17:35.341Z,101670.84
2023-03-03T15:20:16.663Z,101672.34
2023-03-03T15:22:45.983Z,101667.63
2023-03-03T15:25:21.100Z,101659.75
2023-03-03T15:28:06.079Z,101665.53
2023-03-03T15:30:35.002Z,101651.53
2023-03-03T15:33:20.737Z,101661.53
2023-03-03T15:35:48.836Z,101659.53
2023-03-03T15:38:28.178Z,101645.22
2023-03-03T15:40:58.044Z,101644.97
2023-03-03T15:43:24.441Z,101637.94
2023-03-03T15:46:06.551Z,101638.06
2023-03-03T15:48:34.347Z,101639.66
2023-03-03T15:51:06.557Z,101637.63
2023-03-03T15:53:38.807Z,101639.66
2023-03-03T15:56:27.382Z,101632.34
2023-03-03T15:59:07.204Z,101624.44
2023-03-03T16:01:34.151Z,101630.13
2023-03-03T16:04:00.432Z,101624.66
2023-03-03T16:06:32.611Z,101626.00
2023-03-03T16:09:01.868Z,101623.75
2023-03-03T16:11:30.110Z,101628.34
2023-03-03T16:14:01.736Z,101624.28
2023-03-03T16:16:43.198Z,101617.47
2023-03-03T16:19:18.095Z,101630.59
2023-03-03T16:21:53.437Z,101626.41
2023-03-03T16:24:29.569Z,101624.38
2023-03-03T16:27:04.708Z,101615.09
2023-03-03T16:29:36.063Z,101623.63
2023-03-03T16:32:05.126Z,101622.16
2023-03-03T16:34:37.471Z,101625.16
2023-03-03T16:37:10.816Z,101620.34
2023-03-03T16:39:52.010Z,101618.94
2023-03-03T16:42:24.202Z,101620.34
2023-03-03T16:44:50.461Z,101622.44
2023-03-03T16:47:19.357Z,101621.06
2023-03-03T16:50:04.391Z,101625.53
2023-03-03T16:52:36.410Z,101623.50
2023-03-03T16:55:05.068Z,101622.78
2023-03-03T16:57:33.172Z,101609.81
2023-03-03T17:00:02.467Z,101611.69
2023-03-03T17:02:32.893Z,101608.78
2023-03-03T17:05:03.070Z,101611.88
2023-03-03T17:07:35.010Z,101610.94
2023-03-03T17:10:05.837Z,101605.72
2023-03-03T17:12:38.632Z,101610.19
2023-03-03T17:15:07.496Z,101617.34
2023-03-03T17:17:36.578Z,101611.47
2023-03-03T17:20:09.685Z,101615.72
2023-03-03T17:22:51.037Z,101615.84
2023-03-03T17:25:21.419Z,101617.97
2023-03-03T17:27:57.314Z,101617.13
2023-03-03T17:30:26.692Z,101615.72
2023-03-03T17:32:52.980Z,101617.75
2023-03-03T17:35:31.781Z,101614.66
2023-03-03T17:38:06.589Z,101610.28
2023-03-03T17:40:38.760Z,101623.28
2023-03-03T17:43:21.850Z,101618.31
2023-03-03T17:45:48.461Z,101621.06
2023-03-03T17:48:20.499Z,101617.53
2023-03-03T17:50:52.825Z,101616.78
2023-03-03T17:53:25.010Z,101616.06
2023-03-03T17:55:51.310Z,101616.78
2023-03-03T17:58:21.990Z,101617.44
2023-03-03T18:00:54.140Z,101621.69
2023-03-03T18:03:23.616Z,101615.09
2023-03-03T18:05:51.926Z,101609.31
2023-03-03T18:08:36.815Z,101619.56
2023-03-03T18:11:08.734Z,101609.31
2023-03-03T18:13:49.217Z,101609.31
2023-03-03T18:16:19.316Z,101607.19
2023-03-03T18:18:54.651Z,101612.53
2023-03-03T18:21:33.199Z,101612.09
2023-03-03T18:24:19.126Z,101600.91
2023-03-03T18:26:45.450Z,101604.88
2023-03-03T18:29:13.547Z,101598.38
2023-03-03T18:31:52.072Z,101597.53
2023-03-03T18:34:21.060Z,101601.16
2023-03-03T18:37:00.386Z,101587.81
2023-03-03T18:39:40.997Z,101591.91
2023-03-03T18:42:16.484Z,101593.19
2023-03-03T18:44:43.134Z,101585.88
2023-03-03T18:47:09.534Z,101597.63
2023-03-03T18:49:47.764Z,101609.09
2023-03-03T18:52:16.537Z,101594.91
2023-03-03T18:54:42.938Z,101598.03
2023-03-03T18:57:13.147Z,101595.44
2023-03-03T18:59:40.118Z,101593.41
2023-03-03T19:02:17.811Z,101588.41
2023-03-03T19:05:05.430Z,101592.78
2023-03-03T19:07:40.672Z,101595.66
2023-03-03T19:10:29.964Z,101594.94
2023-03-03T19:12:57.648Z,101587.03
2023-03-03T19:15:29.777Z,101590.88
2023-03-03T19:17:57.118Z,101578.81
2023-03-03T19:20:23.503Z,101579.88
2023-03-03T19:22:50.456Z,101578.69
2023-03-03T19:25:29.059Z,101577.75
2023-03-03T19:28:01.399Z,101588.31
2023-03-03T19:30:36.471Z,101581.81
2023-03-03T19:33:05.992Z,101578.00
2023-03-03T19:35:54.016Z,101575.00
2023-03-03T19:38:38.876Z,101582.28
2023-03-03T19:41:19.176Z,101583.16
2023-03-03T19:43:58.044Z,101575.25
2023-03-03T19:46:43.320Z,101575.78
2023-03-03T19:49:13.223Z,101571.16
2023-03-03T19:51:58.337Z,101571.09
2023-03-03T19:54:44.131Z,101568.84
2023-03-03T19:57:13.520Z,101572.34
2023-03-03T19:59:48.340Z,101571.59
2023-03-03T20:02:36.319Z,101577.34
2023-03-03T20:05:02.583Z,101571.59
2023-03-03T20:07:38.118Z,101575.09
2023-03-03T20:10:16.350Z,101585.16
2023-03-03T20:13:02.593Z,101577.88
2023-03-03T20:15:32.397Z,101576.41
2023-03-03T20:18:01.631Z,101580.69
2023-03-03T20:20:49.180Z,101579.16
2023-03-03T20:23:36.906Z,101571.91
2023-03-03T20:26:07.652Z,101568.94
2023-03-03T20:28:56.831Z,101571.16
2023-03-03T20:31:29.406Z,101568.94
2023-03-03T20:33:59.584Z,101576.06
2023-03-03T20:36:45.304Z,101573.94
2023-03-03T20:39:18.148Z,101567.41
2023-03-03T20:42:17.081Z,101564.41
2023-03-03T20:45:02.259Z,101569.44
2023-03-03T20:47:50.769Z,101558.56
2023-03-03T20:50:27.853Z,101549.81
2023-03-03T20:52:57.166Z,101549.81
2023-03-03T20:55:26.033Z,101546.94
2023-03-03T20:57:54.004Z,101552.69
2023-03-03T21:00:40.717Z,101546.16
2023-03-03T21:03:26.297Z,101543.28
2023-03-03T21:05:54.564Z,101539.69
2023-03-03T21:08:20.900Z,101540.41
2023-03-03T21:10:55.455Z,101539.69
2023-03-03T21:13:33.979Z,101531.69
2023-03-03T21:16:01.937Z,101526.66
2023-03-03T21:18:28.271Z,101532.31
2023-03-03T21:20:54.635Z,101525.16
2023-03-03T21:23:22.801Z,101516.41
2023-03-03T21:25:55.579Z,101524.31
2023-03-03T21:28:28.642Z,101524.97
2023-03-03T21:31:01.253Z,101527.94
2023-03-03T21:33:46.580Z,101519.22
2023-03-03T21:36:13.822Z,101512.06
2023-03-03T21:38:40.248Z,101503.41
2023-03-03T21:41:06.823Z,101501.94
2023-03-03T21:43:36.857Z,101494.66
2023-03-03T21:46:03.231Z,101499.69
2023-03-03T21:48:29.661Z,101503.19
2023-03-03T21:50:55.998Z,101496.06
2023-03-03T21:53:23.740Z,101496.69
2023-03-03T21:55:50.262Z,101491.56
2023-03-03T21:58:16.669Z,101484.31
2023-03-03T22:00:43.690Z,101497.19
2023-03-03T22:03:10.303Z,101489.97
2023-03-03T22:05:36.623Z,101494.22
2023-03-03T22:08:02.982Z,101483.47
2023-03-03T22:10:29.304Z,101481.22
2023-03-03T22:12:55.906Z,101481.22
2023-03-03T22:15:22.239Z,101471.72
2023-03-03T22:17:48.644Z,101472.47
2023-03-03T22:20:15.383Z,101478.13
2023-03-03T22:22:41.785Z,101465.84
2023-03-03T22:25:08.186Z,101459.25
2023-03-03T22:27:34.806Z,101465.00
2023-03-03T22:30:01.339Z,101457.72
2023-03-03T22:32:28.426Z,101460.53
2023-03-03T22:34:54.843Z,101449.75
2023-03-03T22:37:21.183Z,101454.84
2023-03-03T22:39:47.517Z,101454.13
2023-03-03T22:42:13.843Z,101455.63
2023-03-03T22:44:40.393Z,101459.25
2023-03-03T22:47:06.764Z,101444.09
2023-03-03T22:49:33.108Z,101445.69
2023-03-03T22:51:59.437Z,101430.56
2023-03-03T22:54:25.799Z,101423.31
2023-03-03T22:56:52.111Z,101414.66
2023-03-03T22:59:18.532Z,101401.66
2023-03-03T23:01:44.852Z,101398.69
2023-03-03T23:04:11.222Z,101401.56
2023-03-03T23:06:37.562Z,101402.97
2023-03-03T23:09:03.908Z,101402.97
2023-03-03T23:11:30.229Z,101404.31
2023-03-03T23:13:56.552Z,101409.34
2023-03-03T23:16:22.935Z,101412.97
2023-03-03T23:18:49.301Z,101392.06
2023-03-03T23:21:15.701Z,101394.22
2023-03-03T23:23:42.026Z,101397.19
2023-03-03T23:26:08.345Z,101387.06
2023-03-03T23:28:34.683Z,101379.94
2023-03-03T23:31:01.064Z,101379.94
2023-03-03T23:33:27.436Z,101366.91
2023-03-03T23:35:53.832Z,101369.78
2023-03-03T23:38:20.232Z,101361.16
2023-03-03T23:40:46.790Z,101374.06
2023-03-03T23:43:13.494Z,101375.44
2023-03-03T23:45:39.824Z,101372.56
2023-03-03T23:48:06.243Z,101362.44
2023-03-03T23:54:41.781Z,101373.84
2023-03-03T23:57:08.762Z,101368.09
2023-03-03T23:59:35.170Z,101366.56
